Time;durP1;ratioP1;P1;durP2;ratioP2;P2;SDS_P1;SDS_P2;PMS_P1;PMS_P2;Temp;Humidity;BMP_temperature;BMP_pressure;BME280_temperature;BME280_humidity;BME280_pressure;Samples;Min_cycle;Max_cycle;Signal;HPM_P1;HPM_P2
2021/12/26 00:01:57;;;;;;;;;;;7.80;99.90;;;;;;5075834;28;19916;-73
2021/12/26 00:04:23;;;;;;;;;;;7.90;99.90;;;;;;5075557;28;19935;-73
2021/12/26 00:06:49;;;;;;;;;;;7.90;99.90;;;;;;5075625;28;19909;-73
2021/12/26 00:09:14;;;;;;;;;;;7.90;99.90;;;;;;5075615;28;19908;-73
2021/12/26 00:11:40;;;;;;;;;;;7.80;99.90;;;;;;5074615;28;20367;-73
2021/12/26 00:14:06;;;;;;;;;;;7.80;99.90;;;;;;5075707;28;19955;-73
2021/12/26 00:16:31;;;;;;;;;;;7.80;99.90;;;;;;5075609;28;20434;-73
2021/12/26 00:18:57;;;;;;;;;;;7.80;99.90;;;;;;5075607;28;19912;-73
2021/12/26 00:21:23;;;;;;;;;;;7.70;99.90;;;;;;5075452;28;19920;-73
2021/12/26 00:23:49;;;;;;;;;;;7.70;99.90;;;;;;5075593;28;19954;-73
2021/12/26 00:26:15;;;;;;;;;;;7.70;99.90;;;;;;5075359;28;19948;-73
2021/12/26 00:28:41;;;;;;;;;;;7.70;99.90;;;;;;5075189;28;19915;-73
2021/12/26 00:31:06;;;;;;;;;;;7.70;99.90;;;;;;5057326;28;19909;-73
2021/12/26 00:33:32;;;;;;;;;;;7.70;99.90;;;;;;5075000;28;19993;-73
2021/12/26 00:35:59;;;;;;;;;;;7.80;99.90;;;;;;5075182;28;19912;-73
2021/12/26 00:38:24;;;;;;;;;;;7.90;99.90;;;;;;5075115;28;19916;-73
2021/12/26 00:40:50;;;;;;;;;;;7.90;99.90;;;;;;5075132;28;19917;-73
2021/12/26 00:43:16;;;;;;;;;;;7.70;99.90;;;;;;5074032;28;19909;-73
2021/12/26 00:45:42;;;;;;;;;;;7.70;99.90;;;;;;5075054;28;20256;-73
2021/12/26 00:48:07;;;;;;;;;;;7.70;99.90;;;;;;5075012;28;20334;-73
2021/12/26 00:50:34;;;;;;;;;;;7.80;99.90;;;;;;5074611;28;19916;-73
2021/12/26 00:53:00;;;;;;;;;;;7.70;99.90;;;;;;5074769;28;19908;-73
2021/12/26 00:55:26;;;;;;;;;;;7.60;99.90;;;;;;5074505;28;19912;-74
2021/12/26 00:57:52;;;;;;;;;;;7.50;99.90;;;;;;5073918;28;19915;-73
2021/12/26 01:00:20;;;;;;;;;;;7.30;99.90;;;;;;5073089;28;19908;-73
2021/12/26 01:02:47;;;;;;;;;;;7.30;99.90;;;;;;5073105;28;19958;-73
2021/12/26 01:05:13;;;;;;;;;;;7.30;99.90;;;;;;5074424;28;19908;-74
2021/12/26 01:10:37;;;;;;;;;;;7.30;99.90;;;;;;5056878;28;20039;-73
2021/12/26 01:13:14;;;;;;;;;;;7.10;99.90;;;;;;5056820;28;19916;-73
2021/12/26 01:15:40;;;;;;;;;;;7.10;99.90;;;;;;5074355;28;20007;-73
2021/12/26 01:18:06;;;;;;;;;;;7.20;99.90;;;;;;5074338;28;19908;-73
2021/12/26 01:21:16;;;;;;;;;;;7.30;99.90;;;;;;5074332;28;20371;-73
2021/12/26 01:23:24;;;;;;;;;;;7.30;99.90;;;;;;5071127;28;19912;-73
2021/12/26 01:25:50;;;;;;;;;;;7.30;99.90;;;;;;5074144;28;20359;-73
2021/12/26 01:28:18;;;;;;;;;;;7.30;99.90;;;;;;5073879;28;20347;-73
2021/12/26 01:30:43;;;;;;;;;;;7.30;99.90;;;;;;5073994;28;20401;-73
2021/12/26 01:33:10;;;;;;;;;;;7.20;99.90;;;;;;5073814;28;19909;-73
2021/12/26 01:35:37;;;;;;;;;;;7.20;99.90;;;;;;5073946;28;20039;-73
2021/12/26 01:38:03;;;;;;;;;;;7.20;99.90;;;;;;5074136;28;20496;-73
2021/12/26 01:40:30;;;;;;;;;;;7.20;99.90;;;;;;5073979;28;20011;-73
2021/12/26 01:43:01;;;;;;;;;;;7.20;99.90;;;;;;5073938;28;19913;-73
2021/12/26 01:45:26;;;;;;;;;;;7.20;99.90;;;;;;5073953;28;19982;-73
2021/12/26 01:47:56;;;;;;;;;;;7.10;99.90;;;;;;5074006;28;20379;-73
2021/12/26 01:50:21;;;;;;;;;;;7.10;99.90;;;;;;5073778;28;19908;-73
2021/12/26 01:52:47;;;;;;;;;;;7.20;99.90;;;;;;5076262;28;20023;-73
2021/12/26 01:55:25;;;;;;;;;;;7.30;99.90;;;;;;5093675;28;19915;-73
2021/12/26 01:57:51;;;;;;;;;;;7.30;99.90;;;;;;5076136;28;19916;-73
2021/12/26 02:00:17;;;;;;;;;;;7.30;99.90;;;;;;5093834;28;19908;-73
2021/12/26 02:02:43;;;;;;;;;;;7.30;99.90;;;;;;5093695;28;19912;-73
2021/12/26 02:05:09;;;;;;;;;;;7.40;99.90;;;;;;5093723;28;19912;-73
2021/12/26 02:07:34;;;;;;;;;;;7.40;99.90;;;;;;5075638;28;19908;-73
2021/12/26 02:10:00;;;;;;;;;;;7.30;99.90;;;;;;5093914;28;19953;-73
2021/12/26 02:12:26;;;;;;;;;;;7.30;99.90;;;;;;5094032;28;20301;-73
2021/12/26 02:14:52;;;;;;;;;;;7.30;99.90;;;;;;5093864;28;19918;-73
2021/12/26 02:17:18;;;;;;;;;;;7.30;99.90;;;;;;5093818;28;20413;-73
2021/12/26 02:19:44;;;;;;;;;;;7.40;99.90;;;;;;5075688;28;19912;-73
2021/12/26 02:22:13;;;;;;;;;;;7.20;99.90;;;;;;5093608;28;19923;-73
2021/12/26 02:27:33;;;;;;;;;;;7.30;99.90;;;;;;5093615;28;19919;-73
2021/12/26 02:30:09;;;;;;;;;;;7.30;99.90;;;;;;5093688;28;20270;-73
2021/12/26 02:32:35;;;;;;;;;;;7.30;99.90;;;;;;5093427;28;19912;-73
2021/12/26 02:35:01;;;;;;;;;;;7.30;99.90;;;;;;5075593;28;19908;-73
2021/12/26 02:37:26;;;;;;;;;;;7.20;99.90;;;;;;5093631;28;19915;-73
2021/12/26 02:39:52;;;;;;;;;;;7.20;99.90;;;;;;5093180;28;19919;-73
2021/12/26 02:42:18;;;;;;;;;;;7.10;99.90;;;;;;5093326;28;20389;-73
2021/12/26 02:44:44;;;;;;;;;;;7.20;99.90;;;;;;5093474;28;19908;-73
2021/12/26 02:47:10;;;;;;;;;;;7.20;99.90;;;;;;5093372;28;19953;-73
2021/12/26 02:49:35;;;;;;;;;;;7.30;99.90;;;;;;5093343;28;19908;-73
2021/12/26 02:52:01;;;;;;;;;;;7.30;99.90;;;;;;5093285;28;20274;-73
2021/12/26 02:54:27;;;;;;;;;;;7.30;99.90;;;;;;5093317;28;20287;-73
2021/12/26 02:56:53;;;;;;;;;;;7.20;99.90;;;;;;5093157;28;20328;-73
2021/12/26 02:59:18;;;;;;;;;;;7.00;99.90;;;;;;5092988;28;19952;-73
2021/12/26 03:01:44;;;;;;;;;;;6.90;99.90;;;;;;5092979;28;19919;-73
2021/12/26 03:04:10;;;;;;;;;;;7.00;99.90;;;;;;5093272;28;19943;-73
2021/12/26 03:06:48;;;;;;;;;;;7.00;99.90;;;;;;5095827;28;19908;-73
2021/12/26 03:09:14;;;;;;;;;;;7.00;99.90;;;;;;5097160;28;20347;-73
2021/12/26 03:11:39;;;;;;;;;;;7.10;99.90;;;;;;5078743;28;20002;-73
2021/12/26 03:14:06;;;;;;;;;;;7.10;99.90;;;;;;5096894;28;19948;-73
2021/12/26 03:16:32;;;;;;;;;;;7.20;99.90;;;;;;5097063;28;19976;-73
2021/12/26 03:18:58;;;;;;;;;;;7.20;99.90;;;;;;5096763;28;20386;-73
2021/12/26 03:21:24;;;;;;;;;;;7.20;99.90;;;;;;5096893;28;19962;-73
2021/12/26 03:23:50;;;;;;;;;;;7.10;99.90;;;;;;5096897;28;19936;-73
2021/12/26 03:26:15;;;;;;;;;;;7.20;99.90;;;;;;5096891;28;19957;-73
2021/12/26 03:28:41;;;;;;;;;;;7.20;99.90;;;;;;5096730;28;19912;-73
2021/12/26 03:31:06;;;;;;;;;;;7.10;99.90;;;;;;5096677;28;19950;-73
2021/12/26 03:33:33;;;;;;;;;;;7.20;99.90;;;;;;5096858;28;20035;-73
2021/12/26 03:35:59;;;;;;;;;;;7.10;99.90;;;;;;5096727;28;19947;-73
2021/12/26 03:38:25;;;;;;;;;;;7.10;99.90;;;;;;5096610;28;20311;-73
2021/12/26 03:40:52;;;;;;;;;;;7.10;99.90;;;;;;5096497;28;20010;-73
2021/12/26 03:43:18;;;;;;;;;;;7.10;99.90;;;;;;5096405;28;20403;-73
2021/12/26 03:45:45;;;;;;;;;;;7.10;99.90;;;;;;5096348;28;20406;-73
2021/12/26 03:48:12;;;;;;;;;;;7.10;99.90;;;;;;5096450;28;19979;-73
2021/12/26 03:50:40;;;;;;;;;;;7.10;99.90;;;;;;5094436;28;20248;-73
2021/12/26 03:53:09;;;;;;;;;;;7.20;99.90;;;;;;5079770;28;19909;-73
2021/12/26 03:55:35;;;;;;;;;;;7.20;99.90;;;;;;5076004;28;20432;-73
2021/12/26 03:58:01;;;;;;;;;;;7.30;99.90;;;;;;5075976;28;19999;-73
2021/12/26 04:00:27;;;;;;;;;;;7.20;99.90;;;;;;5075963;28;19940;-73
2021/12/26 04:02:53;;;;;;;;;;;6.90;99.90;;;;;;5075893;28;19912;-73
2021/12/26 04:05:19;;;;;;;;;;;6.60;99.90;;;;;;5075891;28;20241;-73
2021/12/26 04:07:44;;;;;;;;;;;6.50;99.90;;;;;;5075909;28;19916;-73
2021/12/26 04:10:11;;;;;;;;;;;6.50;99.90;;;;;;5075901;28;20077;-73
2021/12/26 04:12:42;;;;;;;;;;;6.50;99.90;;;;;;5075503;28;19999;-74
2021/12/26 04:15:09;;;;;;;;;;;6.70;99.90;;;;;;5075641;28;19953;-73
2021/12/26 04:17:35;;;;;;;;;;;6.80;99.90;;;;;;5075489;28;19996;-73
2021/12/26 04:20:03;;;;;;;;;;;6.90;99.90;;;;;;5075653;28;19916;-73
2021/12/26 04:22:28;;;;;;;;;;;6.90;99.90;;;;;;5057486;28;19922;-73
2021/12/26 04:24:54;;;;;;;;;;;6.90;99.90;;;;;;5075559;28;19999;-73
2021/12/26 04:27:21;;;;;;;;;;;7.00;99.90;;;;;;5075272;28;20280;-73
2021/12/26 04:29:47;;;;;;;;;;;7.00;99.90;;;;;;5075523;28;19908;-73
2021/12/26 04:32:13;;;;;;;;;;;7.10;99.90;;;;;;5074073;28;20287;-73
2021/12/26 04:34:38;;;;;;;;;;;7.10;99.90;;;;;;5075417;28;19912;-73
2021/12/26 04:37:04;;;;;;;;;;;7.10;99.90;;;;;;5075241;28;20356;-73
2021/12/26 04:39:30;;;;;;;;;;;7.10;99.90;;;;;;5075231;28;19912;-73
2021/12/26 04:41:55;;;;;;;;;;;7.10;99.90;;;;;;5075013;28;20646;-73
2021/12/26 04:44:24;;;;;;;;;;;7.10;99.90;;;;;;5075181;28;19916;-73
2021/12/26 04:46:49;;;;;;;;;;;7.00;99.90;;;;;;5075156;28;19914;-73
2021/12/26 04:49:15;;;;;;;;;;;7.00;99.90;;;;;;5074962;28;19908;-73
2021/12/26 04:51:41;;;;;;;;;;;6.80;99.90;;;;;;5074803;28;19919;-73
2021/12/26 04:54:06;;;;;;;;;;;6.90;99.90;;;;;;5074665;28;19912;-73
2021/12/26 04:56:32;;;;;;;;;;;6.90;99.90;;;;;;5074568;28;20006;-73
2021/12/26 04:58:58;;;;;;;;;;;6.90;99.90;;;;;;5074560;28;19947;-73
2021/12/26 05:01:23;;;;;;;;;;;7.00;99.90;;;;;;5074553;28;20429;-73
2021/12/26 05:03:49;;;;;;;;;;;7.10;99.90;;;;;;5073291;28;19915;-73
2021/12/26 05:06:14;;;;;;;;;;;7.10;99.90;;;;;;5074457;28;20440;-73
2021/12/26 05:08:40;;;;;;;;;;;7.20;99.90;;;;;;5074242;28;19919;-73
2021/12/26 05:11:06;;;;;;;;;;;7.20;99.90;;;;;;5074487;28;20271;-73
2021/12/26 05:13:31;;;;;;;;;;;7.30;99.90;;;;;;5074527;28;19981;-73
2021/12/26 05:15:57;;;;;;;;;;;7.30;99.90;;;;;;5074509;28;19916;-73
2021/12/26 05:18:22;;;;;;;;;;;7.30;99.90;;;;;;5074266;28;19915;-73
2021/12/26 05:20:48;;;;;;;;;;;7.20;99.90;;;;;;5074265;28;19920;-73
2021/12/26 05:23:14;;;;;;;;;;;7.10;99.90;;;;;;5074232;28;20362;-73
2021/12/26 05:25:39;;;;;;;;;;;7.00;99.90;;;;;;5074131;28;20265;-74
2021/12/26 05:28:05;;;;;;;;;;;7.10;99.90;;;;;;5073699;28;19908;-73
2021/12/26 05:30:31;;;;;;;;;;;7.00;99.90;;;;;;5074283;28;19912;-73
2021/12/26 05:32:56;;;;;;;;;;;7.00;99.90;;;;;;5074161;28;19908;-73
2021/12/26 05:35:22;;;;;;;;;;;6.90;99.90;;;;;;5072928;28;20315;-73
2021/12/26 05:37:48;;;;;;;;;;;7.20;99.90;;;;;;5074122;28;19916;-73
2021/12/26 05:40:14;;;;;;;;;;;7.30;99.90;;;;;;5073963;28;20347;-73
2021/12/26 05:42:40;;;;;;;;;;;7.00;99.90;;;;;;5073907;28;19916;-74
2021/12/26 05:45:07;;;;;;;;;;;6.90;99.90;;;;;;5074029;28;20318;-73
2021/12/26 05:47:32;;;;;;;;;;;6.90;99.90;;;;;;5073775;28;19950;-73
2021/12/26 05:49:58;;;;;;;;;;;7.00;99.90;;;;;;5073868;28;20283;-73
2021/12/26 05:52:24;;;;;;;;;;;7.20;99.90;;;;;;5073809;28;19908;-73
2021/12/26 05:54:50;;;;;;;;;;;7.20;99.90;;;;;;5073706;28;19915;-73
2021/12/26 05:57:16;;;;;;;;;;;7.30;99.90;;;;;;5074109;28;19909;-73
2021/12/26 05:59:42;;;;;;;;;;;7.20;99.90;;;;;;5073694;28;19935;-73
2021/12/26 06:02:08;;;;;;;;;;;7.10;99.90;;;;;;5073746;28;19916;-73
2021/12/26 06:04:33;;;;;;;;;;;7.20;99.90;;;;;;5073687;28;19919;-73
2021/12/26 06:06:59;;;;;;;;;;;7.20;99.90;;;;;;5072373;28;19919;-73
2021/12/26 06:09:25;;;;;;;;;;;7.40;99.90;;;;;;5073493;28;19912;-73
2021/12/26 06:11:51;;;;;;;;;;;7.30;99.90;;;;;;5073537;28;19927;-73
2021/12/26 06:14:16;;;;;;;;;;;7.20;99.90;;;;;;5073568;28;20360;-73
2021/12/26 06:16:42;;;;;;;;;;;7.20;99.90;;;;;;5073507;28;19908;-73
2021/12/26 06:19:07;;;;;;;;;;;7.40;99.90;;;;;;5073576;28;19908;-73
2021/12/26 06:21:33;;;;;;;;;;;7.40;99.90;;;;;;5073339;28;19922;-73
2021/12/26 06:23:59;;;;;;;;;;;7.40;99.90;;;;;;5073419;28;20308;-73
2021/12/26 06:26:25;;;;;;;;;;;7.30;99.90;;;;;;5073632;28;20248;-73
2021/12/26 06:28:51;;;;;;;;;;;7.40;99.90;;;;;;5073528;28;20287;-73
2021/12/26 06:31:17;;;;;;;;;;;7.40;99.90;;;;;;5073452;28;19908;-73
2021/12/26 06:33:42;;;;;;;;;;;7.40;99.90;;;;;;5073435;28;19973;-73
2021/12/26 06:36:09;;;;;;;;;;;7.40;99.90;;;;;;5073318;28;19913;-73
2021/12/26 06:38:36;;;;;;;;;;;7.50;99.90;;;;;;5073112;28;19932;-73
2021/12/26 06:41:02;;;;;;;;;;;7.50;99.90;;;;;;5076583;28;19912;-73
2021/12/26 06:43:28;;;;;;;;;;;7.50;99.90;;;;;;5077222;28;19999;-73
2021/12/26 06:45:54;;;;;;;;;;;7.50;99.90;;;;;;5077321;28;19943;-73
2021/12/26 06:48:20;;;;;;;;;;;7.40;99.90;;;;;;5076386;28;19909;-73
2021/12/26 06:50:46;;;;;;;;;;;7.10;99.90;;;;;;5077282;28;19973;-73
2021/12/26 06:53:12;;;;;;;;;;;7.20;99.90;;;;;;5076900;28;19909;-73
2021/12/26 06:55:38;;;;;;;;;;;7.30;99.90;;;;;;5077064;28;19944;-73
2021/12/26 06:58:04;;;;;;;;;;;7.20;99.90;;;;;;5077193;28;20260;-72
2021/12/26 07:00:29;;;;;;;;;;;7.30;99.90;;;;;;5076995;28;19908;-73
2021/12/26 07:02:55;;;;;;;;;;;7.40;99.90;;;;;;5076843;28;19912;-73
2021/12/26 07:05:21;;;;;;;;;;;7.60;99.90;;;;;;5076905;28;19916;-73
2021/12/26 07:07:46;;;;;;;;;;;7.70;99.90;;;;;;5075992;28;19916;-73
2021/12/26 07:10:12;;;;;;;;;;;7.70;99.90;;;;;;5076949;28;19915;-73
2021/12/26 07:12:38;;;;;;;;;;;7.70;99.90;;;;;;5076682;28;19915;-73
2021/12/26 07:15:04;;;;;;;;;;;7.50;99.90;;;;;;5076705;28;19908;-73
2021/12/26 07:17:30;;;;;;;;;;;7.20;99.90;;;;;;5076840;28;19908;-73
2021/12/26 07:19:55;;;;;;;;;;;7.10;99.90;;;;;;5076723;28;20751;-73
2021/12/26 07:22:21;;;;;;;;;;;7.20;99.90;;;;;;5076659;28;19967;-73
2021/12/26 07:24:47;;;;;;;;;;;7.30;99.90;;;;;;5076728;28;19942;-73
2021/12/26 07:27:13;;;;;;;;;;;7.40;99.90;;;;;;5076698;28;19919;-73
2021/12/26 07:29:39;;;;;;;;;;;7.50;99.90;;;;;;5076610;28;19908;-73
2021/12/26 07:32:05;;;;;;;;;;;7.50;99.90;;;;;;5058477;28;19915;-73
2021/12/26 07:34:31;;;;;;;;;;;7.50;99.90;;;;;;5076381;28;19919;-73
2021/12/26 07:36:56;;;;;;;;;;;7.60;99.90;;;;;;5091821;28;19916;-73
2021/12/26 07:39:22;;;;;;;;;;;7.70;99.90;;;;;;5076077;28;19912;-73
2021/12/26 07:41:47;;;;;;;;;;;7.70;99.90;;;;;;5075849;28;20066;-72
2021/12/26 07:44:13;;;;;;;;;;;7.60;99.90;;;;;;5076171;28;19908;-73
2021/12/26 07:46:39;;;;;;;;;;;7.60;99.90;;;;;;5088433;28;19923;-73
2021/12/26 07:49:04;;;;;;;;;;;7.70;99.90;;;;;;5096413;28;19908;-73
2021/12/26 07:51:30;;;;;;;;;;;7.80;99.90;;;;;;5077498;28;19912;-73
2021/12/26 07:54:01;;;;;;;;;;;7.80;99.90;;;;;;5096222;28;19915;-73
2021/12/26 07:56:27;;;;;;;;;;;7.80;99.90;;;;;;5092338;28;19908;-73
2021/12/26 07:58:52;;;;;;;;;;;7.70;99.90;;;;;;5075823;28;19919;-73
2021/12/26 08:01:18;;;;;;;;;;;7.60;99.90;;;;;;5075787;28;20309;-73
2021/12/26 08:03:45;;;;;;;;;;;7.60;99.90;;;;;;5075648;28;20404;-73
2021/12/26 08:06:16;;;;;;;;;;;7.70;99.90;;;;;;5075797;28;19912;-73
2021/12/26 08:08:42;;;;;;;;;;;7.80;99.90;;;;;;5075917;28;19909;-73
2021/12/26 08:11:08;;;;;;;;;;;7.80;99.90;;;;;;5057784;28;19966;-72
2021/12/26 08:13:34;;;;;;;;;;;7.80;99.90;;;;;;5075753;28;19908;-73
2021/12/26 08:15:59;;;;;;;;;;;7.80;99.90;;;;;;5075688;28;19990;-72
2021/12/26 08:18:25;;;;;;;;;;;7.80;99.90;;;;;;5075458;28;20317;-73
2021/12/26 08:20:51;;;;;;;;;;;7.80;99.90;;;;;;5088272;28;19923;-73
2021/12/26 08:23:16;;;;;;;;;;;7.90;99.90;;;;;;5095782;28;19908;-73
2021/12/26 08:25:42;;;;;;;;;;;8.00;99.90;;;;;;5095589;28;19908;-73
2021/12/26 08:28:08;;;;;;;;;;;8.00;99.90;;;;;;5095639;28;20343;-73
2021/12/26 08:30:34;;;;;;;;;;;8.00;99.90;;;;;;5095649;28;19912;-73
2021/12/26 08:33:05;;;;;;;;;;;8.00;99.90;;;;;;5095467;28;19908;-73
2021/12/26 08:35:31;;;;;;;;;;;8.10;99.90;;;;;;5095556;28;19938;-73
2021/12/26 08:37:57;;;;;;;;;;;8.10;99.90;;;;;;5095501;28;19969;-73
2021/12/26 08:40:23;;;;;;;;;;;7.90;99.90;;;;;;5095454;28;19912;-73
2021/12/26 08:42:48;;;;;;;;;;;7.80;99.90;;;;;;5095278;28;20264;-72
2021/12/26 08:45:14;;;;;;;;;;;7.80;99.90;;;;;;5095286;28;20347;-73
2021/12/26 08:47:40;;;;;;;;;;;7.80;99.90;;;;;;5077027;28;19915;-73
2021/12/26 08:50:06;;;;;;;;;;;7.90;99.90;;;;;;5095196;28;19908;-73
2021/12/26 08:52:32;;;;;;;;;;;7.90;99.90;;;;;;5095230;28;19908;-73
2021/12/26 08:54:57;;;;;;;;;;;8.10;99.90;;;;;;5095250;28;20003;-73
2021/12/26 08:57:23;;;;;;;;;;;8.20;99.90;;;;;;5094218;28;19909;-73
2021/12/26 08:59:49;;;;;;;;;;;8.30;99.90;;;;;;5094479;28;20003;-73
2021/12/26 09:02:14;;;;;;;;;;;8.40;99.90;;;;;;5093775;28;19919;-73
2021/12/26 09:04:40;;;;;;;;;;;8.40;99.90;;;;;;5093272;28;20286;-73
2021/12/26 09:07:08;;;;;;;;;;;8.40;99.90;;;;;;5095034;28;20317;-73
2021/12/26 09:09:34;;;;;;;;;;;8.50;99.90;;;;;;5076748;28;20278;-73
2021/12/26 09:11:59;;;;;;;;;;;8.50;99.90;;;;;;5094925;28;19908;-73
2021/12/26 09:14:26;;;;;;;;;;;8.50;99.90;;;;;;5094834;28;20003;-73
2021/12/26 09:16:51;;;;;;;;;;;8.40;99.90;;;;;;5094123;28;20408;-73
2021/12/26 09:19:17;;;;;;;;;;;8.50;99.90;;;;;;5094392;28;19908;-73
2021/12/26 09:21:43;;;;;;;;;;;8.50;99.90;;;;;;5094450;28;20351;-73
2021/12/26 09:24:09;;;;;;;;;;;8.50;99.90;;;;;;5094637;28;19908;-73
2021/12/26 09:26:34;;;;;;;;;;;8.40;99.90;;;;;;5094538;28;19918;-72
2021/12/26 09:29:00;;;;;;;;;;;8.30;99.90;;;;;;5094302;28;19911;-72
2021/12/26 09:31:26;;;;;;;;;;;8.30;99.90;;;;;;5094303;28;19912;-73
2021/12/26 09:33:52;;;;;;;;;;;8.50;99.90;;;;;;5094232;28;19908;-73
2021/12/26 09:36:17;;;;;;;;;;;8.60;99.90;;;;;;5094288;28;19939;-73
2021/12/26 09:38:43;;;;;;;;;;;8.70;99.90;;;;;;5094252;28;19915;-73
2021/12/26 09:41:08;;;;;;;;;;;8.80;99.90;;;;;;5075996;28;19912;-73
2021/12/26 09:43:34;;;;;;;;;;;8.70;99.90;;;;;;5094351;28;20427;-73
2021/12/26 09:46:00;;;;;;;;;;;8.60;99.90;;;;;;5094187;28;19930;-73
2021/12/26 09:48:25;;;;;;;;;;;8.80;99.90;;;;;;5076287;28;20418;-73
2021/12/26 09:50:51;;;;;;;;;;;8.90;99.90;;;;;;5094231;28;19918;-73
2021/12/26 09:53:17;;;;;;;;;;;9.00;99.90;;;;;;5094241;28;19916;-73
2021/12/26 09:55:42;;;;;;;;;;;9.00;99.90;;;;;;5094157;28;20346;-73
2021/12/26 09:58:08;;;;;;;;;;;9.10;99.90;;;;;;5093883;28;19998;-73
2021/12/26 10:00:35;;;;;;;;;;;8.90;99.90;;;;;;5075610;28;19908;-73
2021/12/26 10:03:13;;;;;;;;;;;8.80;99.90;;;;;;5093956;28;19916;-73
2021/12/26 10:05:57;;;;;;;;;;;8.80;99.90;;;;;;5093929;28;19961;-74
2021/12/26 10:08:22;;;;;;;;;;;8.80;99.90;;;;;;5093825;28;19915;-73
2021/12/26 10:11:06;;;;;;;;;;;8.80;99.90;;;;;;5093714;28;19908;-73
2021/12/26 10:13:43;;;;;;;;;;;8.90;99.90;;;;;;5093763;28;19998;-73
2021/12/26 10:16:09;;;;;;;;;;;9.00;99.90;;;;;;5093623;28;19908;-74
2021/12/26 10:18:39;;;;;;;;;;;9.10;99.90;;;;;;5093805;28;20036;-72
2021/12/26 10:21:27;;;;;;;;;;;9.10;99.90;;;;;;5093662;28;19916;-73
2021/12/26 10:23:55;;;;;;;;;;;9.20;99.90;;;;;;5093472;28;19919;-73
2021/12/26 10:26:21;;;;;;;;;;;9.10;99.90;;;;;;5093583;28;20020;-73
2021/12/26 10:29:03;;;;;;;;;;;8.90;99.90;;;;;;5093592;28;19908;-73
2021/12/26 10:31:29;;;;;;;;;;;8.80;99.90;;;;;;5093653;28;19915;-73
2021/12/26 10:33:54;;;;;;;;;;;9.10;99.90;;;;;;5075234;28;19908;-74
2021/12/26 10:36:20;;;;;;;;;;;9.20;99.90;;;;;;5093502;28;19926;-73
2021/12/26 10:39:05;;;;;;;;;;;9.30;99.90;;;;;;5093399;28;20037;-73
2021/12/26 10:41:31;;;;;;;;;;;9.40;99.90;;;;;;5093247;28;20026;-73
2021/12/26 10:43:56;;;;;;;;;;;9.30;99.90;;;;;;5093380;28;20000;-73
2021/12/26 10:46:22;;;;;;;;;;;9.40;99.90;;;;;;5093254;28;20270;-73
2021/12/26 10:48:47;;;;;;;;;;;9.40;99.90;;;;;;5093396;28;19919;-73
2021/12/26 10:51:32;;;;;;;;;;;9.40;99.90;;;;;;5075396;28;20317;-73
2021/12/26 10:54:14;;;;;;;;;;;9.40;99.90;;;;;;5093375;28;19948;-72
2021/12/26 10:56:40;;;;;;;;;;;9.50;99.90;;;;;;5093328;28;19908;-72
2021/12/26 10:59:21;;;;;;;;;;;9.50;99.90;;;;;;5074968;28;20672;-71
2021/12/26 11:01:48;;;;;;;;;;;9.40;99.90;;;;;;5093188;28;19915;-71
2021/12/26 11:04:14;;;;;;;;;;;9.40;99.90;;;;;;5093311;28;20389;-71
2021/12/26 11:07:03;;;;;;;;;;;9.40;99.90;;;;;;5075233;28;19943;-72
2021/12/26 11:09:29;;;;;;;;;;;9.30;99.90;;;;;;5093316;28;19952;-72
2021/12/26 11:12:07;;;;;;;;;;;9.30;99.90;;;;;;5074931;28;19951;-71
2021/12/26 11:14:53;;;;;;;;;;;9.30;99.90;;;;;;5093183;28;19908;-71
2021/12/26 11:17:29;;;;;;;;;;;9.40;99.90;;;;;;5093134;28;19908;-72
2021/12/26 11:19:55;;;;;;;;;;;9.40;99.90;;;;;;5093168;28;19918;-72
2021/12/26 11:22:22;;;;;;;;;;;9.30;99.90;;;;;;5093038;28;20003;-72
2021/12/26 11:24:49;;;;;;;;;;;9.30;99.90;;;;;;5093031;28;19908;-72
2021/12/26 11:27:14;;;;;;;;;;;9.40;99.90;;;;;;5095095;28;19915;-72
2021/12/26 11:29:40;;;;;;;;;;;9.40;99.90;;;;;;5078817;28;19908;-72
2021/12/26 11:32:06;;;;;;;;;;;9.40;99.90;;;;;;5096589;28;19943;-72
2021/12/26 11:34:33;;;;;;;;;;;9.40;99.90;;;;;;5096588;28;19908;-72
2021/12/26 11:36:59;;;;;;;;;;;9.40;99.90;;;;;;5096763;28;20355;-72
2021/12/26 11:39:25;;;;;;;;;;;9.40;99.90;;;;;;5096736;28;19946;-72
2021/12/26 11:41:58;;;;;;;;;;;9.60;99.90;;;;;;5096582;28;20362;-72
2021/12/26 11:44:29;;;;;;;;;;;9.60;99.90;;;;;;5096643;28;20280;-72
2021/12/26 11:46:55;;;;;;;;;;;9.70;99.90;;;;;;5096534;28;19981;-72
2021/12/26 11:49:26;;;;;;;;;;;9.70;99.90;;;;;;5096433;28;20330;-72
2021/12/26 11:51:55;;;;;;;;;;;9.70;99.90;;;;;;5078246;28;19915;-72
2021/12/26 11:54:33;;;;;;;;;;;9.70;99.90;;;;;;5096362;28;19951;-71
2021/12/26 11:57:05;;;;;;;;;;;9.70;99.90;;;;;;5096313;28;19947;-72
2021/12/26 11:59:49;;;;;;;;;;;9.80;99.90;;;;;;5095443;28;20124;-71
2021/12/26 12:02:33;;;;;;;;;;;9.80;99.90;;;;;;5084475;28;19922;-71
2021/12/26 12:05:06;;;;;;;;;;;9.80;99.90;;;;;;5075770;28;19908;-71
2021/12/26 12:07:43;;;;;;;;;;;9.80;99.90;;;;;;5075603;28;19916;-71
2021/12/26 12:10:28;;;;;;;;;;;9.80;99.90;;;;;;5075799;28;19909;-72
2021/12/26 12:12:53;;;;;;;;;;;9.80;99.90;;;;;;5075842;28;19915;-71
2021/12/26 12:15:39;;;;;;;;;;;9.80;99.90;;;;;;5075847;28;19913;-72
2021/12/26 12:18:09;;;;;;;;;;;9.90;99.90;;;;;;5075639;28;19908;-71
2021/12/26 12:20:35;;;;;;;;;;;9.90;99.90;;;;;;5075589;28;19909;-72
2021/12/26 12:23:04;;;;;;;;;;;10.00;99.90;;;;;;5057943;28;19920;-71
2021/12/26 12:25:30;;;;;;;;;;;;;;;;;;5075475;28;19908;-71
2021/12/26 12:28:16;;;;;;;;;;;10.20;99.90;;;;;;5075515;28;20283;-71
2021/12/26 12:30:43;;;;;;;;;;;10.20;99.90;;;;;;5056845;28;20016;-72
2021/12/26 12:33:28;;;;;;;;;;;10.20;99.90;;;;;;5075148;28;19909;-71
2021/12/26 12:35:56;;;;;;;;;;;10.20;99.90;;;;;;5075154;28;19954;-71
2021/12/26 12:38:30;;;;;;;;;;;10.20;99.90;;;;;;5074998;28;19912;-71
2021/12/26 12:40:57;;;;;;;;;;;10.20;99.90;;;;;;5074920;28;20368;-71
2021/12/26 12:43:24;;;;;;;;;;;10.10;99.90;;;;;;5075065;28;20275;-71
2021/12/26 12:45:50;;;;;;;;;;;10.20;99.90;;;;;;5074990;28;19994;-71
2021/12/26 12:48:22;;;;;;;;;;;10.10;99.90;;;;;;5076329;28;20394;-71
2021/12/26 12:50:48;;;;;;;;;;;10.10;99.90;;;;;;5093147;28;20002;-71
2021/12/26 12:53:34;;;;;;;;;;;10.00;99.90;;;;;;5095261;28;19908;-71
2021/12/26 12:56:00;;;;;;;;;;;10.00;99.90;;;;;;5080693;28;19974;-72
2021/12/26 12:58:31;;;;;;;;;;;9.90;99.90;;;;;;5095122;28;19943;-71
2021/12/26 13:00:57;;;;;;;;;;;9.70;99.90;;;;;;5076897;28;19911;-71
2021/12/26 13:03:23;;;;;;;;;;;9.60;99.90;;;;;;5095072;28;19923;-71
2021/12/26 13:05:49;;;;;;;;;;;9.70;99.90;;;;;;5094882;28;19912;-71
2021/12/26 13:08:18;;;;;;;;;;;9.70;99.90;;;;;;5094789;28;20287;-71
2021/12/26 13:10:49;;;;;;;;;;;9.70;99.90;;;;;;5094642;28;20364;-72
2021/12/26 13:13:15;;;;;;;;;;;9.70;99.90;;;;;;5094681;28;20240;-71
2021/12/26 13:15:50;;;;;;;;;;;9.80;99.90;;;;;;5094604;28;19915;-71
2021/12/26 13:18:16;;;;;;;;;;;9.80;99.90;;;;;;5094794;28;19950;-71
2021/12/26 13:20:42;;;;;;;;;;;9.80;99.90;;;;;;5094672;28;19961;-71
2021/12/26 13:23:08;;;;;;;;;;;9.80;99.90;;;;;;5094706;28;20403;-71
2021/12/26 13:25:38;;;;;;;;;;;9.80;99.90;;;;;;5076438;28;20350;-71
2021/12/26 13:28:25;;;;;;;;;;;9.80;99.90;;;;;;5094282;28;19994;-71
2021/12/26 13:30:58;;;;;;;;;;;9.80;99.90;;;;;;5094138;28;19908;-71
2021/12/26 13:33:28;;;;;;;;;;;9.60;99.90;;;;;;5094535;28;19908;-71
2021/12/26 13:35:54;;;;;;;;;;;9.60;99.90;;;;;;5094405;28;19915;-71
2021/12/26 13:38:21;;;;;;;;;;;9.70;99.90;;;;;;5110249;28;19911;-71
2021/12/26 13:40:48;;;;;;;;;;;9.70;99.90;;;;;;5094311;28;19954;-72
2021/12/26 13:43:14;;;;;;;;;;;9.80;99.90;;;;;;5093883;28;19957;-71
2021/12/26 13:45:43;;;;;;;;;;;9.70;99.90;;;;;;5076261;28;19916;-72
2021/12/26 13:48:10;;;;;;;;;;;9.60;99.90;;;;;;5094240;28;19915;-71
2021/12/26 13:50:36;;;;;;;;;;;9.60;99.90;;;;;;5093797;28;19954;-71
2021/12/26 13:53:06;;;;;;;;;;;9.60;99.90;;;;;;5094082;28;19983;-71
2021/12/26 13:55:33;;;;;;;;;;;9.50;99.90;;;;;;5094044;28;20351;-71
2021/12/26 13:58:00;;;;;;;;;;;9.50;99.90;;;;;;5093890;28;19915;-71
2021/12/26 14:00:26;;;;;;;;;;;9.50;99.90;;;;;;5093889;28;19912;-71
2021/12/26 14:02:51;;;;;;;;;;;9.60;99.90;;;;;;5093974;28;19916;-72
2021/12/26 14:05:20;;;;;;;;;;;9.60;99.90;;;;;;5094075;28;19908;-71
2021/12/26 14:07:53;;;;;;;;;;;9.60;99.90;;;;;;5093988;28;19912;-72
2021/12/26 14:10:20;;;;;;;;;;;9.70;99.90;;;;;;5093929;28;19915;-71
2021/12/26 14:12:47;;;;;;;;;;;9.70;99.90;;;;;;5093716;28;19939;-72
2021/12/26 14:15:45;;;;;;;;;;;9.70;99.90;;;;;;5093632;28;20394;-71
2021/12/26 14:18:12;;;;;;;;;;;9.70;99.90;;;;;;5071837;28;19916;-71
2021/12/26 14:20:46;;;;;;;;;;;9.70;99.90;;;;;;5093695;28;19908;-72
2021/12/26 14:23:30;;;;;;;;;;;9.70;99.90;;;;;;5093479;28;19920;-71
2021/12/26 14:25:56;;;;;;;;;;;9.80;99.90;;;;;;5075422;28;19916;-71
2021/12/26 14:28:23;;;;;;;;;;;9.80;99.90;;;;;;5093499;28;19989;-71
2021/12/26 14:30:52;;;;;;;;;;;9.90;99.90;;;;;;5093450;28;19915;-71
2021/12/26 14:33:18;;;;;;;;;;;9.80;99.90;;;;;;5093718;28;19908;-71
2021/12/26 14:35:45;;;;;;;;;;;9.90;99.90;;;;;;5093506;28;19908;-71
2021/12/26 14:38:15;;;;;;;;;;;9.80;99.90;;;;;;5093674;28;19912;-71
2021/12/26 14:40:50;;;;;;;;;;;9.80;99.90;;;;;;5093539;28;19991;-71